Sky Ever — DSQX9 — position and weather

sailwx.info

Track history (hours):
 
Tides and Currents Weather Stations Pressure Air Temp Water Temp Dewpoint Dewpoint Depression Visibility Wind Speed Wind Dir Waves Ship Positions

Sky Ever

Last reported at 2017-Jun-23 14:47 UTC. Time now 2017-Jun-26 17:37 UTC.
Position N 35°19' E 139°43'.

Length 76 m; draft 5.3 m.

Type: Cargo ship. MMSI: 441751000.

Date/timePositionNaut miles runAvg speedWind from/ knotsBaromVisibWave heightAir tempDewpointWater temp
2017-Jun-23 14:47N 35°19' E 139°43'6 7.4
2017-Jun-23 14:00N 35°24' E 139°43'4 7.9
2017-Jun-23 13:30N 35°27' E 139°47'4 8.1
2017-Jun-23 13:00N 35°29' E 139°51'4 7.8
2017-Jun-23 12:30N 35°32' E 139°54'5 7.7
2017-Jun-23 11:54N 35°35' E 139°58'4 7.4
2017-Jun-23 11:26N 35°39' E 139°59'2 0.1
2017-Jun-23 00:32N 35°40' E 139°59'0 0.0
2017-Jun-23 00:10N 35°40' E 139°59'0 0.0
2017-Jun-22 22:23N 35°40' E 139°59'1 2.8
2017-Jun-22 22:00N 35°39' E 139°59'3 5.1
2017-Jun-22 21:28N 35°37' E 139°58'0 0.1
2017-Jun-22 16:51N 35°36' E 139°58'0 0.0
2017-Jun-22 00:22N 35°36' E 139°58'0 0.1
2017-Jun-21 23:54N 35°36' E 139°58'2 0.1
2017-Jun-21 08:02N 35°35' E 139°57'0 9.2
2017-Jun-21 08:00N 35°34' E 139°57'5 9.4
2017-Jun-21 07:30N 35°30' E 139°53'5 9.2
2017-Jun-21 07:00N 35°27' E 139°49'4 8.9
2017-Jun-21 06:31N 35°24' E 139°46'  
Track history (hours):
 
Tides and Currents Weather Stations Pressure Air Temp Water Temp Dewpoint Dewpoint Depression Visibility Wind Speed Wind Dir Waves Ship Positions

Sky Ever

Last reported at 2017-Jun-23 14:47 UTC. Time now 2017-Jun-26 17:37 UTC.
Position N 35°19' E 139°43'.

Length 76 m; draft 5.3 m.

Type: Cargo ship. MMSI: 441751000.

Date/timePositionNaut miles runAvg speedWind from/ knotsBaromVisibWave heightAir tempDewpointWater temp
2017-Jun-23 14:47N 35°19' E 139°43'6 7.4
2017-Jun-23 14:00N 35°24' E 139°43'4 7.9
2017-Jun-23 13:30N 35°27' E 139°47'4 8.1
2017-Jun-23 13:00N 35°29' E 139°51'4 7.8
2017-Jun-23 12:30N 35°32' E 139°54'5 7.7
2017-Jun-23 11:54N 35°35' E 139°58'4 7.4
2017-Jun-23 11:26N 35°39' E 139°59'2 0.1
2017-Jun-23 00:32N 35°40' E 139°59'0 0.0
2017-Jun-23 00:10N 35°40' E 139°59'0 0.0
2017-Jun-22 22:23N 35°40' E 139°59'1 2.8
2017-Jun-22 22:00N 35°39' E 139°59'3 5.1
2017-Jun-22 21:28N 35°37' E 139°58'0 0.1
2017-Jun-22 16:51N 35°36' E 139°58'0 0.0
2017-Jun-22 00:22N 35°36' E 139°58'0 0.1
2017-Jun-21 23:54N 35°36' E 139°58'2 0.1
2017-Jun-21 08:02N 35°35' E 139°57'0 9.2
2017-Jun-21 08:00N 35°34' E 139°57'5 9.4
2017-Jun-21 07:30N 35°30' E 139°53'5 9.2
2017-Jun-21 07:00N 35°27' E 139°49'4 8.9
2017-Jun-21 06:31N 35°24' E 139°46'  

Dump ship's entire track history